Time;durP1;ratioP1;P1;durP2;ratioP2;P2;SDS_P1;SDS_P2;PMS_P1;PMS_P2;Temp;Humidity;BMP_temperature;BMP_pressure;BME280_temperature;BME280_humidity;BME280_pressure;Samples;Min_cycle;Max_cycle;Signal;HPM_P1;HPM_P2
2022/04/01 00:00:29;;;;;;;33.55;22.75;;;6.90;64.50;;;;;;5038652;28;20056;-46
2022/04/01 00:02:58;;;;;;;35.85;23.88;;;6.90;64.50;;;;;;5042160;28;20049;-44
2022/04/01 00:05:26;;;;;;;34.45;24.45;;;7.00;64.50;;;;;;5038795;28;20053;-44
2022/04/01 00:07:53;;;;;;;37.85;25.08;;;7.00;64.20;;;;;;5040649;28;20057;-48
2022/04/01 00:10:21;;;;;;;33.88;22.85;;;7.00;64.30;;;;;;5039407;28;20049;-44
2022/04/01 00:12:48;;;;;;;35.75;23.10;;;6.90;64.30;;;;;;5041560;28;20049;-43
2022/04/01 00:15:16;;;;;;;31.52;21.20;;;6.90;64.20;;;;;;5036926;28;20053;-44
2022/04/01 00:17:44;;;;;;;31.27;20.35;;;6.90;64.10;;;;;;5041264;28;20056;-44
2022/04/01 00:20:14;;;;;;;27.88;18.88;;;6.90;64.20;;;;;;5041327;28;20053;-47
2022/04/01 00:22:42;;;;;;;31.92;22.23;;;6.90;64.20;;;;;;5041171;28;20063;-44
2022/04/01 00:25:10;;;;;;;31.15;21.83;;;6.90;64.20;;;;;;5036459;28;20501;-49
2022/04/01 00:27:38;;;;;;;30.63;22.13;;;6.90;64.10;;;;;;5039942;28;20060;-45
2022/04/01 00:30:07;;;;;;;28.95;20.10;;;6.90;64.10;;;;;;5039718;28;20554;-45
2022/04/01 00:32:34;;;;;;;32.25;21.45;;;6.80;64.10;;;;;;5039990;28;20060;-44
2022/04/01 00:35:03;;;;;;;30.25;20.52;;;6.90;64.20;;;;;;5037803;28;20053;-44
2022/04/01 00:37:31;;;;;;;28.58;20.15;;;6.90;64.30;;;;;;5040978;28;20052;-44
2022/04/01 00:40:00;;;;;;;28.45;19.23;;;6.90;64.30;;;;;;5039294;28;20060;-45
2022/04/01 00:42:30;;;;;;;28.77;20.73;;;6.90;64.20;;;;;;5041184;28;20064;-44
2022/04/01 00:44:58;;;;;;;28.42;20.77;;;6.90;64.20;;;;;;5037880;28;20416;-43
2022/04/01 00:47:26;;;;;;;28.90;20.95;;;6.90;64.10;;;;;;5040032;28;20061;-43
2022/04/01 00:49:55;;;;;;;29.63;20.63;;;6.90;64.10;;;;;;5040563;28;20386;-44
2022/04/01 00:52:23;;;;;;;32.63;21.73;;;6.90;64.20;;;;;;5038103;28;20881;-44
2022/04/01 00:54:52;;;;;;;31.92;21.30;;;6.90;64.20;;;;;;5036893;28;20057;-46
2022/04/01 00:57:21;;;;;;;35.33;21.70;;;6.90;64.30;;;;;;5040201;28;20052;-44
2022/04/01 00:59:50;;;;;;;36.28;22.63;;;6.80;64.40;;;;;;5040397;28;20064;-44
2022/04/01 01:02:18;;;;;;;31.45;21.88;;;6.80;64.60;;;;;;5044112;28;20056;-43
2022/04/01 01:04:45;;;;;;;32.40;22.25;;;6.70;64.70;;;;;;5042421;28;20061;-45
2022/04/01 01:07:14;;;;;;;33.92;21.63;;;6.70;64.90;;;;;;5044956;28;20045;-44
2022/04/01 01:09:43;;;;;;;33.33;22.17;;;6.70;65.00;;;;;;5044907;28;20063;-44
2022/04/01 01:12:12;;;;;;;32.75;22.33;;;6.60;65.10;;;;;;5042844;28;20056;-43
2022/04/01 01:14:41;;;;;;;31.65;21.27;;;6.70;65.50;;;;;;5042318;28;20057;-43
2022/04/01 01:17:12;;;;;;;29.15;19.98;;;6.60;65.40;;;;;;5044207;28;20057;-43
2022/04/01 01:19:40;;;;;;;28.30;20.88;;;6.70;65.70;;;;;;5044968;28;20057;-45
2022/04/01 01:22:08;;;;;;;27.17;19.98;;;6.70;65.80;;;;;;5042650;28;20404;-43
2022/04/01 01:24:38;;;;;;;31.65;22.00;;;6.70;65.90;;;;;;5041801;28;20066;-44
2022/04/01 01:27:07;;;;;;;32.55;22.02;;;6.60;65.90;;;;;;5044198;28;20057;-43
2022/04/01 01:29:37;;;;;;;33.38;22.27;;;6.70;66.00;;;;;;5044750;28;20052;-44
2022/04/01 01:32:07;;;;;;;33.10;22.98;;;6.60;65.90;;;;;;5042079;28;20049;-48
2022/04/01 01:34:35;;;;;;;33.55;22.73;;;6.70;66.00;;;;;;5040645;28;20061;-44
2022/04/01 01:37:04;;;;;;;31.10;22.45;;;6.60;65.90;;;;;;5041735;28;20057;-44
2022/04/01 01:39:32;;;;;;;34.85;22.73;;;6.60;65.90;;;;;;5040352;28;20053;-43
2022/04/01 01:42:01;;;;;;;34.88;23.02;;;6.60;66.10;;;;;;5041504;28;20060;-44
2022/04/01 01:44:29;;;;;;;33.20;22.75;;;6.60;66.30;;;;;;5022235;28;20417;-44
2022/04/01 01:46:57;;;;;;;33.88;21.95;;;6.60;66.20;;;;;;5043371;28;20053;-45
2022/04/01 01:49:24;;;;;;;31.73;22.23;;;6.70;66.40;;;;;;5043258;28;20064;-44
2022/04/01 01:54:50;;;;;;;32.65;23.20;;;6.70;66.40;;;;;;5047508;28;20056;-44
2022/04/01 01:57:22;;;;;;;32.05;22.13;;;6.70;66.40;;;;;;5041889;28;20404;-44
2022/04/01 01:59:50;;;;;;;33.47;22.20;;;6.70;66.50;;;;;;5040027;28;20412;-43
2022/04/01 02:02:18;;;;;;;33.92;22.48;;;6.70;66.40;;;;;;5038899;28;20064;-44
2022/04/01 02:04:46;;;;;;;32.13;22.40;;;6.70;66.50;;;;;;5040369;28;20411;-47
2022/04/01 02:07:14;;;;;;;34.85;23.52;;;6.60;66.30;;;;;;5042961;28;20056;-44
2022/04/01 02:09:46;;;;;;;33.03;22.52;;;6.60;66.30;;;;;;5041961;28;20052;-44
2022/04/01 02:12:16;;;;;;;34.35;23.05;;;6.60;67.00;;;;;;5041484;28;20055;-44
2022/04/01 02:14:45;;;;;;;33.45;22.98;;;6.60;66.40;;;;;;5039017;28;20053;-43
2022/04/01 02:17:12;;;;;;;37.40;25.20;;;6.60;66.50;;;;;;5040911;28;20413;-44
2022/04/01 02:19:40;;;;;;;39.35;23.52;;;6.50;66.50;;;;;;5044015;28;20056;-43
2022/04/01 02:22:08;;;;;;;34.40;22.73;;;6.50;66.70;;;;;;5039102;28;20389;-43
2022/04/01 02:24:36;;;;;;;36.15;24.80;;;6.50;66.90;;;;;;5040150;28;20049;-43
2022/04/01 02:27:04;;;;;;;33.05;22.52;;;6.50;67.00;;;;;;5038050;28;20409;-43
2022/04/01 02:29:31;;;;;;;34.90;23.52;;;6.50;67.10;;;;;;5043922;28;20424;-43
2022/04/01 02:32:00;;;;;;;42.15;24.63;;;6.50;67.20;;;;;;5042995;28;20052;-43
2022/04/01 02:34:28;;;;;;;36.20;24.38;;;6.50;67.40;;;;;;5041454;28;20416;-43
2022/04/01 02:36:58;;;;;;;34.72;23.90;;;6.50;67.40;;;;;;5040972;28;20068;-43
2022/04/01 02:39:26;;;;;;;34.30;23.45;;;6.50;67.40;;;;;;5041903;28;20060;-43
2022/04/01 02:41:54;;;;;;;32.20;21.65;;;6.50;67.40;;;;;;5039418;28;20053;-43
2022/04/01 02:44:22;;;;;;;33.88;22.13;;;6.50;67.30;;;;;;5042865;28;20056;-43
2022/04/01 02:46:50;;;;;;;31.77;22.10;;;6.50;67.20;;;;;;5041147;28;20049;-43
2022/04/01 02:49:19;;;;;;;29.52;20.38;;;6.40;67.10;;;;;;5042780;28;20061;-43
2022/04/01 02:51:48;;;;;;;30.70;21.30;;;6.50;67.20;;;;;;5043617;28;20052;-43
2022/04/01 02:54:16;;;;;;;27.40;19.35;;;6.40;67.10;;;;;;5042952;28;20953;-44
2022/04/01 02:56:44;;;;;;;28.83;20.02;;;6.40;67.10;;;;;;5040984;28;20055;-44
2022/04/01 02:59:12;;;;;;;28.05;19.10;;;6.40;67.10;;;;;;5042007;28;20404;-44
2022/04/01 03:01:42;;;;;;;25.45;19.08;;;6.40;66.90;;;;;;5042780;28;20064;-43
2022/04/01 03:04:11;;;;;;;25.42;19.13;;;6.40;66.90;;;;;;5042608;28;20064;-43
2022/04/01 03:06:42;;;;;;;21.15;15.60;;;6.40;66.80;;;;;;5042514;28;20049;-43
2022/04/01 03:09:09;;;;;;;21.65;16.15;;;6.40;66.60;;;;;;5042432;28;20049;-43
2022/04/01 03:11:37;;;;;;;23.17;16.67;;;6.40;66.40;;;;;;5034943;28;20619;-43
2022/04/01 03:14:06;;;;;;;18.55;13.20;;;6.40;66.20;;;;;;5038330;28;20076;-43
2022/04/01 03:16:34;;;;;;;19.45;13.77;;;6.40;65.90;;;;;;5038100;28;20049;-42
2022/04/01 03:19:02;;;;;;;16.27;12.70;;;6.50;65.80;;;;;;5039411;28;20385;-44
2022/04/01 03:21:29;;;;;;;16.45;11.80;;;6.50;65.60;;;;;;5040999;28;20053;-43
2022/04/01 03:24:00;;;;;;;13.98;11.68;;;6.50;65.40;;;;;;5037183;28;20044;-44
2022/04/01 03:26:28;;;;;;;15.25;10.18;;;6.50;65.10;;;;;;5040167;28;20061;-44
2022/04/01 03:28:56;;;;;;;13.70;10.95;;;6.50;64.70;;;;;;5041036;28;20626;-43
2022/04/01 03:31:23;;;;;;;12.32;9.60;;;6.50;64.50;;;;;;5041236;28;20061;-45
2022/04/01 03:33:51;;;;;;;12.38;9.20;;;6.60;64.50;;;;;;5041607;28;20073;-44
2022/04/01 03:36:19;;;;;;;10.80;9.15;;;6.50;64.30;;;;;;5040751;28;20408;-44
2022/04/01 03:38:47;;;;;;;13.20;9.75;;;6.60;64.10;;;;;;5040535;28;20045;-43
2022/04/01 03:41:17;;;;;;;15.15;11.32;;;6.60;63.70;;;;;;5039977;28;20056;-43
2022/04/01 03:43:45;;;;;;;10.57;9.05;;;6.60;63.30;;;;;;5040316;28;20733;-43
2022/04/01 03:46:15;;;;;;;12.73;9.68;;;6.60;63.30;;;;;;5040551;28;20061;-43
2022/04/01 03:48:45;;;;;;;10.73;8.73;;;6.60;63.20;;;;;;5041224;28;20492;-43
2022/04/01 03:51:18;;;;;;;11.38;8.88;;;6.50;63.00;;;;;;5041003;28;20052;-45
2022/04/01 03:53:54;;;;;;;10.90;9.23;;;6.50;62.90;;;;;;5038584;28;20053;-43
2022/04/01 03:56:25;;;;;;;11.45;8.02;;;6.50;62.90;;;;;;5038715;28;20048;-44
2022/04/01 03:58:53;;;;;;;10.93;8.25;;;6.50;62.60;;;;;;5039237;28;20064;-43
2022/04/01 04:01:21;;;;;;;8.82;7.22;;;6.50;62.50;;;;;;5040538;28;20052;-44
2022/04/01 04:03:50;;;;;;;11.07;8.48;;;6.50;62.70;;;;;;5039842;28;20500;-43
2022/04/01 04:06:19;;;;;;;11.50;8.57;;;6.50;62.80;;;;;;5036416;28;20060;-45
2022/04/01 04:08:47;;;;;;;10.05;7.80;;;6.50;62.40;;;;;;5040705;28;20056;-43
2022/04/01 04:11:17;;;;;;;9.07;7.57;;;6.50;62.30;;;;;;5039139;28;20049;-46
2022/04/01 04:13:46;;;;;;;11.93;7.80;;;6.50;62.30;;;;;;5040373;28;20064;-43
2022/04/01 04:16:19;;;;;;;10.73;8.00;;;6.50;62.30;;;;;;5035423;28;20460;-43
2022/04/01 04:18:49;;;;;;;9.32;6.90;;;6.50;62.20;;;;;;5038250;28;20049;-44
2022/04/01 04:21:29;;;;;;;9.32;7.35;;;6.60;62.10;;;;;;5038675;28;20999;-43
2022/04/01 04:23:58;;;;;;;8.30;6.93;;;6.60;61.60;;;;;;5037730;28;20056;-43
2022/04/01 04:26:31;;;;;;;8.15;7.05;;;6.60;61.70;;;;;;5040744;28;20531;-43
2022/04/01 04:29:08;;;;;;;9.77;7.55;;;6.60;61.70;;;;;;5041465;28;20061;-43
2022/04/01 04:31:37;;;;;;;8.82;7.22;;;6.60;61.60;;;;;;5041228;28;20067;-43
2022/04/01 04:34:09;;;;;;;7.18;6.22;;;6.60;61.20;;;;;;5037707;28;20045;-43
2022/04/01 04:36:39;;;;;;;10.80;6.05;;;6.60;60.80;;;;;;5042341;28;20056;-45
2022/04/01 04:39:10;;;;;;;7.50;6.05;;;6.60;60.80;;;;;;5042444;28;20045;-43
2022/04/01 04:41:39;;;;;;;8.77;6.10;;;6.60;60.50;;;;;;5042520;28;20067;-45
2022/04/01 04:44:09;;;;;;;10.55;6.43;;;6.60;60.40;;;;;;5042156;28;20049;-45
2022/04/01 04:46:38;;;;;;;8.73;6.32;;;6.60;59.90;;;;;;5043247;28;20520;-44
2022/04/01 04:49:05;;;;;;;8.80;6.20;;;6.60;59.70;;;;;;5041767;28;20049;-45
2022/04/01 04:51:33;;;;;;;8.57;6.03;;;6.50;59.50;;;;;;5044005;28;20059;-44
2022/04/01 04:54:03;;;;;;;9.32;5.80;;;6.50;59.60;;;;;;5041545;28;20057;-44
2022/04/01 04:56:32;;;;;;;9.60;6.57;;;6.50;59.50;;;;;;5042372;28;20068;-43
2022/04/01 04:59:02;;;;;;;7.97;5.82;;;6.50;59.40;;;;;;5043308;28;20056;-45
2022/04/01 05:01:38;;;;;;;10.13;6.80;;;6.60;59.40;;;;;;5043392;28;20409;-46
2022/04/01 05:04:25;;;;;;;7.90;6.03;;;6.50;59.20;;;;;;5041966;28;20053;-43
2022/04/01 05:07:02;;;;;;;8.35;6.38;;;6.50;58.80;;;;;;5043615;28;20586;-44
2022/04/01 05:09:38;;;;;;;9.43;6.22;;;6.50;58.50;;;;;;5042885;28;20052;-45
2022/04/01 05:12:16;;;;;;;9.38;6.18;;;6.50;58.40;;;;;;5040233;28;20053;-44
2022/04/01 05:15:04;;;;;;;9.27;6.05;;;6.50;58.30;;;;;;5042145;28;20052;-44
2022/04/01 05:17:36;;;;;;;8.98;5.80;;;6.50;58.30;;;;;;5041153;28;20567;-44
2022/04/01 05:20:11;;;;;;;9.40;6.55;;;6.50;58.30;;;;;;5044179;28;20053;-43
2022/04/01 05:22:49;;;;;;;9.82;6.47;;;6.50;58.30;;;;;;5044281;28;20061;-44
2022/04/01 05:25:20;;;;;;;8.43;5.43;;;6.50;57.80;;;;;;5041106;28;20064;-43
2022/04/01 05:27:50;;;;;;;8.45;6.35;;;6.50;57.70;;;;;;5042973;28;20049;-44
2022/04/01 05:30:21;;;;;;;8.02;5.90;;;6.40;57.50;;;;;;5042570;28;20053;-43
2022/04/01 05:32:59;;;;;;;8.15;6.18;;;6.40;57.50;;;;;;5042585;28;20057;-44
2022/04/01 05:35:32;;;;;;;9.05;5.85;;;6.40;57.50;;;;;;5043629;28;20386;-43
2022/04/01 05:38:00;;;;;;;9.25;6.28;;;6.40;57.60;;;;;;5042944;28;20049;-45
2022/04/01 05:40:29;;;;;;;9.98;5.93;;;6.30;57.50;;;;;;5042206;28;20061;-43
2022/04/01 05:42:57;;;;;;;9.68;5.85;;;6.30;57.50;;;;;;5042720;28;20053;-46
2022/04/01 05:45:27;;;;;;;9.60;6.55;;;6.30;57.80;;;;;;5039315;28;20060;-43
2022/04/01 05:47:57;;;;;;;11.13;6.05;;;6.40;57.90;;;;;;5043281;28;20056;-43
2022/04/01 05:50:27;;;;;;;10.80;6.18;;;6.30;57.40;;;;;;5043061;28;20416;-43
2022/04/01 05:52:55;;;;;;;12.88;6.95;;;6.30;57.30;;;;;;5043722;28;20416;-44
2022/04/01 05:55:24;;;;;;;9.32;6.40;;;6.30;57.10;;;;;;5043089;28;20076;-43
2022/04/01 05:57:51;;;;;;;13.23;8.07;;;6.30;57.30;;;;;;5042244;28;20462;-45
2022/04/01 06:00:19;;;;;;;9.15;6.63;;;6.20;57.00;;;;;;5043487;28;20061;-43
2022/04/01 06:03:18;;;;;;;13.15;6.40;;;6.20;57.60;;;;;;5043150;28;20493;-43
2022/04/01 06:05:51;;;;;;;9.77;6.68;;;6.20;57.00;;;;;;5041438;28;20048;-46
2022/04/01 06:08:29;;;;;;;13.02;7.57;;;6.20;56.80;;;;;;5042078;28;20057;-47
2022/04/01 06:11:03;;;;;;;12.00;6.95;;;6.10;56.60;;;;;;5040999;28;20061;-44
2022/04/01 06:13:38;;;;;;;;;;;6.10;56.80;;;;;;5038578;28;20539;-43
2022/04/01 06:16:18;;;;;;;11.68;6.95;;;6.10;56.90;;;;;;5041177;28;20535;-45
2022/04/01 06:18:54;;;;;;;10.90;7.00;;;6.10;56.60;;;;;;5041871;28;20057;-43
2022/04/01 06:21:25;;;;;;;10.43;6.45;;;6.10;56.50;;;;;;5043068;28;20057;-44
2022/04/01 06:24:09;;;;;;;10.30;7.00;;;6.00;56.60;;;;;;5038655;28;20421;-44
2022/04/01 06:26:41;;;;;;;9.00;6.50;;;6.00;56.40;;;;;;5039918;28;20052;-43
2022/04/01 06:29:23;;;;;;;11.70;6.60;;;6.00;56.60;;;;;;5038566;28;20056;-45
2022/04/01 06:31:55;;;;;;;12.45;6.95;;;6.00;56.70;;;;;;5034800;28;20048;-44
2022/04/01 06:34:33;;;;;;;10.90;7.03;;;6.00;56.50;;;;;;5037628;28;20072;-44
2022/04/01 06:37:05;;;;;;;10.00;6.47;;;6.00;56.10;;;;;;5034602;28;20045;-44
2022/04/01 06:39:41;;;;;;;8.85;6.30;;;6.00;56.00;;;;;;5041582;28;20044;-45
2022/04/01 06:42:19;;;;;;;9.50;5.93;;;6.00;56.30;;;;;;5041342;28;20521;-45
2022/04/01 06:44:47;;;;;;;10.35;6.40;;;6.00;56.40;;;;;;5037186;28;20059;-43
2022/04/01 06:47:15;;;;;;;9.68;5.65;;;6.00;56.00;;;;;;5038134;28;20171;-44
2022/04/01 06:49:44;;;;;;;8.40;6.13;;;6.00;55.90;;;;;;5038973;28;20063;-45
2022/04/01 06:52:12;;;;;;;8.95;6.10;;;6.00;55.80;;;;;;5038288;28;20053;-46
2022/04/01 06:54:39;;;;;;;10.25;6.38;;;6.00;55.30;;;;;;5035997;28;20056;-45
2022/04/01 06:57:07;;;;;;;11.98;6.30;;;6.00;55.60;;;;;;5038599;28;20049;-46
2022/04/01 06:59:35;;;;;;;8.00;5.30;;;5.90;55.20;;;;;;5041249;28;20049;-43
2022/04/01 07:02:03;;;;;;;9.85;6.55;;;6.00;55.50;;;;;;5037515;28;20061;-43
2022/04/01 07:04:30;;;;;;;8.23;5.70;;;5.90;55.10;;;;;;5038130;28;20049;-44
2022/04/01 07:06:59;;;;;;;8.20;5.63;;;5.90;55.30;;;;;;5040444;28;20061;-45
2022/04/01 07:09:27;;;;;;;11.45;6.60;;;5.90;55.30;;;;;;5036250;28;20049;-44
2022/04/01 07:11:55;;;;;;;9.32;5.72;;;5.90;55.20;;;;;;5038435;28;20049;-43
2022/04/01 07:14:22;;;;;;;9.27;6.15;;;5.90;55.10;;;;;;5039584;28;20412;-44
2022/04/01 07:16:51;;;;;;;12.85;6.00;;;6.00;54.80;;;;;;5035599;28;20064;-47
2022/04/01 07:19:18;;;;;;;9.63;5.75;;;6.00;54.90;;;;;;5040831;28;20049;-43
2022/04/01 07:21:46;;;;;;;8.43;5.43;;;6.00;55.00;;;;;;5040037;28;20439;-43
2022/04/01 07:24:15;;;;;;;8.63;6.07;;;5.90;55.20;;;;;;5035998;28;20535;-43
2022/04/01 07:26:44;;;;;;;8.93;6.47;;;5.90;55.00;;;;;;5038313;28;20460;-44
2022/04/01 07:29:12;;;;;;;8.80;6.18;;;5.90;55.00;;;;;;5039180;28;20064;-43
2022/04/01 07:34:34;;;;;;;;;;;5.90;54.60;;;;;;5041909;28;20049;-44
2022/04/01 07:37:02;;;;;;;7.35;5.15;;;6.00;54.70;;;;;;5035963;28;19935;-43
2022/04/01 07:39:31;;;;;;;8.50;4.80;;;5.90;54.40;;;;;;5039524;28;20052;-43
2022/04/01 07:41:59;;;;;;;9.65;5.07;;;5.90;54.30;;;;;;5039381;28;20056;-43
2022/04/01 07:44:26;;;;;;;9.93;5.43;;;5.90;54.40;;;;;;5035305;28;21421;-43
2022/04/01 07:46:55;;;;;;;10.60;4.95;;;5.90;54.50;;;;;;5040716;28;20144;-43
2022/04/01 07:49:22;;;;;;;7.28;5.00;;;6.00;54.90;;;;;;5039216;28;20503;-44
2022/04/01 07:51:50;;;;;;;7.75;4.97;;;6.00;54.90;;;;;;5035026;28;20424;-44
2022/04/01 07:54:17;;;;;;;7.88;4.90;;;6.00;54.40;;;;;;5039991;28;20045;-44
2022/04/01 07:56:47;;;;;;;5.40;4.57;;;6.10;54.50;;;;;;5039212;28;20048;-43
2022/04/01 07:59:15;;;;;;;7.85;5.05;;;6.10;54.70;;;;;;5037448;28;20508;-44
2022/04/01 08:01:43;;;;;;;7.90;4.90;;;6.20;54.30;;;;;;5039326;28;20049;-44
2022/04/01 08:04:10;;;;;;;6.85;4.72;;;6.20;53.90;;;;;;5037312;28;20053;-43
2022/04/01 08:06:38;;;;;;;7.45;5.03;;;6.20;53.80;;;;;;5038920;28;20063;-45
2022/04/01 08:09:05;;;;;;;6.78;4.38;;;6.20;53.80;;;;;;5038968;28;20056;-46
2022/04/01 08:11:33;;;;;;;4.97;3.72;;;6.20;53.50;;;;;;5036857;28;20049;-45
2022/04/01 08:14:02;;;;;;;5.57;3.80;;;6.20;53.60;;;;;;5038476;28;20294;-44
2022/04/01 08:16:29;;;;;;;6.05;4.00;;;6.20;53.60;;;;;;5040555;28;20049;-43
2022/04/01 08:18:57;;;;;;;4.63;3.38;;;6.10;53.20;;;;;;5037632;28;20084;-45
2022/04/01 08:21:25;;;;;;;5.15;3.30;;;6.10;53.40;;;;;;5039258;28;20049;-43
2022/04/01 08:23:53;;;;;;;7.88;3.65;;;6.20;52.90;;;;;;5036917;28;20064;-44
2022/04/01 08:26:20;;;;;;;4.72;3.30;;;6.20;52.50;;;;;;5036703;28;20053;-44
2022/04/01 08:28:48;;;;;;;5.68;3.33;;;6.10;52.80;;;;;;5034801;28;20056;-44
2022/04/01 08:31:17;;;;;;;5.53;4.00;;;6.20;53.40;;;;;;5042139;28;20049;-47
2022/04/01 08:33:45;;;;;;;4.25;3.17;;;6.10;53.00;;;;;;5035766;28;20064;-44
2022/04/01 08:36:14;;;;;;;4.03;3.00;;;6.20;53.00;;;;;;5038236;28;20064;-45
2022/04/01 08:38:41;;;;;;;3.88;2.92;;;6.20;52.70;;;;;;5038541;28;20424;-44
2022/04/01 08:41:09;;;;;;;4.57;3.50;;;6.10;52.90;;;;;;5039054;28;20052;-46
2022/04/01 08:43:39;;;;;;;5.43;3.55;;;6.10;52.40;;;;;;5039397;28;20057;-46
2022/04/01 08:46:09;;;;;;;4.13;3.00;;;6.20;52.80;;;;;;5039524;28;20057;-43
2022/04/01 08:48:39;;;;;;;4.43;3.00;;;6.20;52.80;;;;;;5040251;28;20075;-44
2022/04/01 08:51:07;;;;;;;4.03;2.85;;;6.20;53.00;;;;;;5038882;28;20481;-44
2022/04/01 08:53:37;;;;;;;4.63;3.05;;;6.20;52.30;;;;;;5032962;28;20072;-43
2022/04/01 08:56:06;;;;;;;4.32;3.10;;;6.20;52.40;;;;;;5038666;28;20053;-43
2022/04/01 08:58:34;;;;;;;4.35;3.00;;;6.20;52.10;;;;;;5038072;28;20045;-44
2022/04/01 09:01:05;;;;;;;4.80;2.80;;;6.20;52.10;;;;;;5037522;28;20052;-43
2022/04/01 09:03:34;;;;;;;4.68;3.00;;;6.20;52.20;;;;;;5039216;28;20410;-43
2022/04/01 09:06:05;;;;;;;4.95;3.05;;;6.20;52.40;;;;;;5040525;28;20061;-43
2022/04/01 09:08:35;;;;;;;4.57;2.78;;;6.30;52.50;;;;;;5038367;28;20068;-44
2022/04/01 09:11:05;;;;;;;4.07;2.60;;;6.30;51.70;;;;;;5038329;28;20056;-44
2022/04/01 09:13:34;;;;;;;3.75;2.65;;;6.30;51.80;;;;;;5037762;28;20420;-44
2022/04/01 09:16:02;;;;;;;3.60;2.83;;;6.30;51.90;;;;;;5038413;28;20053;-44
2022/04/01 09:18:38;;;;;;;4.68;2.90;;;6.30;51.40;;;;;;5039130;28;20057;-43
2022/04/01 09:21:09;;;;;;;3.13;2.70;;;6.30;51.20;;;;;;5040301;28;20060;-43
2022/04/01 09:23:38;;;;;;;5.20;2.65;;;6.40;51.50;;;;;;5043182;28;20068;-46
2022/04/01 09:26:06;;;;;;;6.70;3.03;;;6.40;51.80;;;;;;5043418;28;20060;-44
2022/04/01 09:28:36;;;;;;;4.90;3.13;;;6.40;51.40;;;;;;5043612;28;20059;-47
2022/04/01 09:31:07;;;;;;;3.92;2.90;;;6.40;51.00;;;;;;5043648;28;20421;-44
2022/04/01 09:33:49;;;;;;;5.22;3.20;;;6.40;50.70;;;;;;5044500;28;20061;-44
2022/04/01 09:36:21;;;;;;;4.93;3.45;;;6.40;50.70;;;;;;5044347;28;20057;-47
2022/04/01 09:38:53;;;;;;;3.10;2.72;;;6.40;50.80;;;;;;5042587;28;20490;-44
2022/04/01 09:41:21;;;;;;;6.10;3.35;;;6.40;51.20;;;;;;5042151;28;20053;-44
2022/04/01 09:43:48;;;;;;;5.45;3.70;;;6.50;51.20;;;;;;5036600;28;20068;-44
2022/04/01 09:46:26;;;;;;;4.65;3.00;;;6.50;51.10;;;;;;5043193;28;20512;-44
2022/04/01 09:48:57;;;;;;;3.92;2.97;;;6.50;51.10;;;;;;5043516;28;20075;-47
2022/04/01 09:51:30;;;;;;;5.38;3.03;;;6.60;50.90;;;;;;5041125;28;20485;-44
2022/04/01 09:54:02;;;;;;;4.57;3.25;;;6.60;50.90;;;;;;5038555;28;20049;-43
2022/04/01 09:56:41;;;;;;;4.03;3.17;;;6.70;51.20;;;;;;5043597;28;20497;-43
2022/04/01 09:59:11;;;;;;;5.13;3.40;;;6.80;51.00;;;;;;5042679;28;20060;-46
2022/04/01 10:01:40;;;;;;;4.07;2.85;;;6.80;51.20;;;;;;5044819;28;20067;-43
2022/04/01 10:04:08;;;;;;;5.15;3.38;;;6.90;51.10;;;;;;5039323;28;20068;-47
2022/04/01 10:06:39;;;;;;;5.13;3.13;;;6.90;49.90;;;;;;5044226;28;20053;-45
2022/04/01 10:09:10;;;;;;;4.07;3.00;;;6.90;49.70;;;;;;5039477;28;20060;-44
2022/04/01 10:11:40;;;;;;;4.78;3.25;;;6.90;49.80;;;;;;5042705;28;20053;-44
2022/04/01 10:14:11;;;;;;;5.32;3.22;;;6.90;49.60;;;;;;5042316;28;20607;-44
2022/04/01 10:16:43;;;;;;;6.03;2.97;;;6.80;48.90;;;;;;5043020;28;20064;-44
2022/04/01 10:19:13;;;;;;;5.38;3.85;;;6.80;49.00;;;;;;5043671;28;20064;-47
2022/04/01 10:21:44;;;;;;;4.97;3.58;;;6.70;48.90;;;;;;5040364;28;20049;-43
2022/04/01 10:24:27;;;;;;;5.88;3.90;;;6.60;49.20;;;;;;5040947;28;20053;-47
2022/04/01 10:27:08;;;;;;;5.95;4.00;;;6.60;49.10;;;;;;5039931;28;20053;-46
2022/04/01 10:29:36;;;;;;;4.90;3.60;;;6.50;48.90;;;;;;5041643;28;20056;-44
2022/04/01 10:32:26;;;;;;;5.85;3.33;;;6.50;49.20;;;;;;5041784;28;20069;-43
2022/04/01 10:34:55;;;;;;;3.90;3.13;;;6.50;49.10;;;;;;5037324;28;20067;-44
2022/04/01 10:37:26;;;;;;;6.78;3.97;;;6.50;49.60;;;;;;5042628;28;20056;-44
2022/04/01 10:39:57;;;;;;;6.68;3.55;;;6.50;49.70;;;;;;5042367;28;20049;-45
2022/04/01 10:42:27;;;;;;;6.80;3.92;;;6.50;49.80;;;;;;5043275;28;20056;-43
2022/04/01 10:44:56;;;;;;;4.88;3.60;;;6.50;49.80;;;;;;5043291;28;20076;-44
2022/04/01 10:51:36;;;;;;;11.10;4.20;;;6.50;49.90;;;;;;5043524;28;20061;-44
2022/04/01 10:53:46;;;;;;;7.35;4.22;;;6.20;49.80;;;;;;5049309;28;20056;-47
2022/04/01 10:56:32;;;;;;;;;;;6.10;50.50;;;;;;5039609;28;20048;-45
2022/04/01 10:59:08;;;;;;;6.63;3.58;;;6.10;50.60;;;;;;5044125;28;20376;-44
2022/04/01 11:01:37;;;;;;;6.18;4.10;;;6.10;50.60;;;;;;5041267;28;20045;-43
2022/04/01 11:04:29;;;;;;;7.05;4.20;;;6.00;50.70;;;;;;5043231;28;20060;-43
2022/04/01 11:06:58;;;;;;;4.53;3.60;;;6.00;50.60;;;;;;5041797;28;20053;-45
2022/04/01 11:09:41;;;;;;;5.13;3.63;;;6.00;51.00;;;;;;5042812;28;20516;-45
2022/04/01 11:12:29;;;;;;;7.20;4.07;;;6.00;50.80;;;;;;5042719;28;20053;-44
2022/04/01 11:15:21;;;;;;;4.75;3.47;;;6.00;50.70;;;;;;5043163;28;20052;-43
2022/04/01 11:18:07;;;;;;;4.82;3.47;;;5.90;50.70;;;;;;5025276;28;20052;-43
2022/04/01 11:20:39;;;;;;;4.05;3.00;;;5.90;50.70;;;;;;5029509;28;20506;-43
2022/04/01 11:23:12;;;;;;;5.15;3.50;;;5.90;50.80;;;;;;5041807;28;20064;-44
2022/04/01 11:25:55;;;;;;;5.60;3.15;;;5.90;50.50;;;;;;5042220;28;20394;-43
2022/04/01 11:28:25;;;;;;;5.68;3.28;;;5.90;50.40;;;;;;5042598;28;20060;-43
2022/04/01 11:31:08;;;;;;;4.88;3.00;;;5.90;50.80;;;;;;5043386;28;20476;-43
2022/04/01 11:33:37;;;;;;;4.75;3.13;;;5.90;51.10;;;;;;5040295;28;20064;-43
2022/04/01 11:36:05;;;;;;;4.65;3.15;;;5.90;50.50;;;;;;5041711;28;20063;-43
2022/04/01 11:38:33;;;;;;;3.78;2.75;;;5.80;49.60;;;;;;5042136;28;20057;-43
2022/04/01 11:41:03;;;;;;;4.25;2.40;;;5.70;49.90;;;;;;5041893;28;20052;-46
2022/04/01 11:43:33;;;;;;;5.72;2.70;;;5.80;50.10;;;;;;5041340;28;20053;-44
2022/04/01 11:46:03;;;;;;;5.43;3.03;;;5.80;49.80;;;;;;5042718;28;20417;-48
2022/04/01 11:48:32;;;;;;;4.97;3.22;;;5.80;50.00;;;;;;5042483;28;20056;-45
2022/04/01 11:51:03;;;;;;;5.03;3.05;;;5.80;50.20;;;;;;5042516;28;20053;-44
2022/04/01 11:53:35;;;;;;;4.10;2.70;;;5.80;50.50;;;;;;5041836;28;20061;-44
2022/04/01 11:56:05;;;;;;;4.13;2.70;;;5.80;50.60;;;;;;5041196;28;20056;-44
2022/04/01 11:58:36;;;;;;;3.38;2.40;;;5.70;50.50;;;;;;5041554;28;20053;-43
2022/04/01 12:01:04;;;;;;;3.33;2.47;;;5.80;50.70;;;;;;5042332;28;20489;-44
2022/04/01 12:03:31;;;;;;;3.92;2.42;;;5.70;50.60;;;;;;5040685;28;20063;-45
2022/04/01 12:08:41;;;;;;;4.25;2.65;;;5.60;51.00;;;;;;5041250;28;20059;-43
2022/04/01 12:08:46;;;;;;;4.15;2.40;;;5.60;51.30;;;;;;5040805;28;20052;-44
2022/04/01 12:11:16;;;;;;;3.65;2.53;;;5.60;51.10;;;;;;5040501;28;20063;-46
2022/04/01 12:13:50;;;;;;;3.55;2.53;;;5.60;51.00;;;;;;5042366;28;20056;-44
2022/04/01 12:16:18;;;;;;;4.13;2.47;;;5.50;51.00;;;;;;5036648;28;20057;-47
2022/04/01 12:18:47;;;;;;;3.83;2.55;;;5.50;51.00;;;;;;5034506;28;20057;-44
2022/04/01 12:21:19;;;;;;;3.80;2.55;;;5.50;51.10;;;;;;5033715;28;20393;-44
2022/04/01 12:23:48;;;;;;;2.83;2.50;;;5.60;50.90;;;;;;5036676;28;20052;-43
2022/04/01 12:26:19;;;;;;;3.83;2.42;;;5.60;51.00;;;;;;5036682;28;20098;-44
2022/04/01 12:28:48;;;;;;;3.00;1.90;;;5.70;51.20;;;;;;5037875;28;20064;-43
2022/04/01 12:31:20;;;;;;;4.15;2.38;;;5.70;51.20;;;;;;5032299;28;20053;-43
2022/04/01 12:33:50;;;;;;;2.90;2.05;;;5.80;50.80;;;;;;5035185;28;20048;-45
2022/04/01 12:36:28;;;;;;;4.78;2.20;;;5.80;50.70;;;;;;5034906;28;20648;-43
2022/04/01 12:39:02;;;;;;;3.58;2.15;;;5.90;50.80;;;;;;5035157;28;20053;-43
2022/04/01 12:41:31;;;;;;;2.78;2.33;;;6.00;50.90;;;;;;5036263;28;20057;-43
2022/04/01 12:44:00;;;;;;;2.17;1.92;;;6.00;50.90;;;;;;5035325;28;20056;-45
2022/04/01 12:46:33;;;;;;;3.10;1.90;;;6.10;50.50;;;;;;5034984;28;20052;-44
2022/04/01 12:49:11;;;;;;;2.83;2.20;;;6.10;50.50;;;;;;5034929;28;20053;-44
2022/04/01 12:51:40;;;;;;;2.85;2.30;;;6.10;50.10;;;;;;5036264;28;20049;-43
2022/04/01 12:54:10;;;;;;;2.30;2.10;;;6.10;49.60;;;;;;5037160;28;20515;-44
2022/04/01 12:56:40;;;;;;;3.58;2.47;;;6.10;49.40;;;;;;5038491;28;20061;-43
2022/04/01 12:59:10;;;;;;;3.50;2.20;;;6.10;49.80;;;;;;5038322;28;20060;-43
2022/04/01 13:01:39;;;;;;;5.10;2.10;;;6.10;49.80;;;;;;5039521;28;20061;-43
2022/04/01 13:04:08;;;;;;;4.25;2.63;;;6.20;49.90;;;;;;5039152;28;20073;-43
2022/04/01 13:06:36;;;;;;;3.72;2.70;;;6.10;49.90;;;;;;5038042;28;20061;-44
2022/04/01 13:09:07;;;;;;;4.45;2.33;;;6.10;49.60;;;;;;5038809;28;20057;-44
2022/04/01 13:11:41;;;;;;;3.72;2.45;;;6.10;49.50;;;;;;5037657;28;20059;-44
2022/04/01 13:14:19;;;;;;;;;;;6.10;49.50;;;;;;5037917;28;20053;-44
2022/04/01 13:16:47;;;;;;;3.33;2.28;;;6.10;49.60;;;;;;5035274;28;19925;-44